sensor_id;sensor_type;location;lat;lon;timestamp;temperature;humidity
15926;DHT22;8062;53.882;10.642;2024-03-22T00:01:01;7.90;99.90
15926;DHT22;8062;53.882;10.642;2024-03-22T00:02:20;7.90;99.90
15926;DHT22;8062;53.882;10.642;2024-03-22T00:03:40;7.90;99.90
15926;DHT22;8062;53.882;10.642;2024-03-22T00:04:59;7.90;99.90
15926;DHT22;8062;53.882;10.642;2024-03-22T00:06:19;7.90;99.90
15926;DHT22;8062;53.882;10.642;2024-03-22T00:07:38;7.90;99.90
15926;DHT22;8062;53.882;10.642;2024-03-22T00:08:58;7.90;99.90
15926;DHT22;8062;53.882;10.642;2024-03-22T00:10:17;7.90;99.90
15926;DHT22;8062;53.882;10.642;2024-03-22T00:11:38;7.90;99.90
15926;DHT22;8062;53.882;10.642;2024-03-22T00:12:58;7.90;99.90
15926;DHT22;8062;53.882;10.642;2024-03-22T00:14:18;7.90;99.90
15926;DHT22;8062;53.882;10.642;2024-03-22T00:15:38;7.90;99.90
15926;DHT22;8062;53.882;10.642;2024-03-22T00:16:57;7.90;99.90
15926;DHT22;8062;53.882;10.642;2024-03-22T00:18:17;7.90;99.90
15926;DHT22;8062;53.882;10.642;2024-03-22T00:19:36;7.90;99.90
15926;DHT22;8062;53.882;10.642;2024-03-22T00:20:55;7.90;99.90
15926;DHT22;8062;53.882;10.642;2024-03-22T00:22:15;7.90;99.90
15926;DHT22;8062;53.882;10.642;2024-03-22T00:23:34;8.00;99.90
15926;DHT22;8062;53.882;10.642;2024-03-22T00:24:54;7.90;99.90
15926;DHT22;8062;53.882;10.642;2024-03-22T00:26:14;8.00;99.90
15926;DHT22;8062;53.882;10.642;2024-03-22T00:27:33;8.00;99.90
15926;DHT22;8062;53.882;10.642;2024-03-22T00:28:53;8.00;99.90
15926;DHT22;8062;53.882;10.642;2024-03-22T00:30:12;8.00;99.90
15926;DHT22;8062;53.882;10.642;2024-03-22T00:31:33;8.00;99.90
15926;DHT22;8062;53.882;10.642;2024-03-22T00:32:52;8.00;99.90
15926;DHT22;8062;53.882;10.642;2024-03-22T00:34:12;8.00;99.90
15926;DHT22;8062;53.882;10.642;2024-03-22T00:35:31;8.00;99.90
15926;DHT22;8062;53.882;10.642;2024-03-22T00:36:51;8.00;99.90
15926;DHT22;8062;53.882;10.642;2024-03-22T00:38:11;8.00;99.90
15926;DHT22;8062;53.882;10.642;2024-03-22T00:39:30;8.10;99.90
15926;DHT22;8062;53.882;10.642;2024-03-22T00:40:50;8.10;99.90
15926;DHT22;8062;53.882;10.642;2024-03-22T00:42:09;8.10;99.90
15926;DHT22;8062;53.882;10.642;2024-03-22T00:43:29;8.10;99.90
15926;DHT22;8062;53.882;10.642;2024-03-22T00:44:48;8.10;99.90
15926;DHT22;8062;53.882;10.642;2024-03-22T00:46:08;8.10;99.90
15926;DHT22;8062;53.882;10.642;2024-03-22T00:47:27;8.10;99.90
15926;DHT22;8062;53.882;10.642;2024-03-22T00:48:47;8.10;99.90
15926;DHT22;8062;53.882;10.642;2024-03-22T00:50:06;8.10;99.90
15926;DHT22;8062;53.882;10.642;2024-03-22T00:51:26;8.10;99.90
15926;DHT22;8062;53.882;10.642;2024-03-22T00:52:45;8.10;99.90
15926;DHT22;8062;53.882;10.642;2024-03-22T00:54:05;8.10;99.90
15926;DHT22;8062;53.882;10.642;2024-03-22T00:55:24;8.10;99.90
15926;DHT22;8062;53.882;10.642;2024-03-22T00:56:44;8.10;99.90
15926;DHT22;8062;53.882;10.642;2024-03-22T00:58:04;8.10;99.90
15926;DHT22;8062;53.882;10.642;2024-03-22T00:59:23;8.10;99.90
15926;DHT22;8062;53.882;10.642;2024-03-22T01:00:42;8.10;99.90
15926;DHT22;8062;53.882;10.642;2024-03-22T01:02:02;8.20;99.90
15926;DHT22;8062;53.882;10.642;2024-03-22T01:03:24;8.20;99.90
15926;DHT22;8062;53.882;10.642;2024-03-22T01:04:43;8.20;99.90
15926;DHT22;8062;53.882;10.642;2024-03-22T01:06:03;8.20;99.90
15926;DHT22;8062;53.882;10.642;2024-03-22T01:07:22;8.20;99.90
15926;DHT22;8062;53.882;10.642;2024-03-22T01:08:41;8.20;99.90
15926;DHT22;8062;53.882;10.642;2024-03-22T01:10:01;8.20;99.90
15926;DHT22;8062;53.882;10.642;2024-03-22T01:11:21;8.20;99.90
15926;DHT22;8062;53.882;10.642;2024-03-22T01:12:41;8.20;99.90
15926;DHT22;8062;53.882;10.642;2024-03-22T01:14:01;8.10;99.90
15926;DHT22;8062;53.882;10.642;2024-03-22T01:15:20;8.10;99.90
15926;DHT22;8062;53.882;10.642;2024-03-22T01:16:40;8.20;99.90
15926;DHT22;8062;53.882;10.642;2024-03-22T01:18:01;8.20;99.90
15926;DHT22;8062;53.882;10.642;2024-03-22T01:19:20;8.20;99.90
15926;DHT22;8062;53.882;10.642;2024-03-22T01:20:40;8.20;99.90
15926;DHT22;8062;53.882;10.642;2024-03-22T01:22:01;8.20;99.90
15926;DHT22;8062;53.882;10.642;2024-03-22T01:23:20;8.20;99.90
15926;DHT22;8062;53.882;10.642;2024-03-22T01:24:40;8.20;99.90
15926;DHT22;8062;53.882;10.642;2024-03-22T01:25:59;8.20;99.90
15926;DHT22;8062;53.882;10.642;2024-03-22T01:27:19;8.20;99.90
15926;DHT22;8062;53.882;10.642;2024-03-22T01:28:38;8.20;99.90
15926;DHT22;8062;53.882;10.642;2024-03-22T01:29:58;8.20;99.90
15926;DHT22;8062;53.882;10.642;2024-03-22T01:31:17;8.30;99.90
15926;DHT22;8062;53.882;10.642;2024-03-22T01:32:37;8.30;99.90
15926;DHT22;8062;53.882;10.642;2024-03-22T01:33:56;8.30;99.90
15926;DHT22;8062;53.882;10.642;2024-03-22T01:35:16;8.30;99.90
15926;DHT22;8062;53.882;10.642;2024-03-22T01:36:36;8.30;99.90
15926;DHT22;8062;53.882;10.642;2024-03-22T01:37:55;8.30;99.90
15926;DHT22;8062;53.882;10.642;2024-03-22T01:39:15;8.30;99.90
15926;DHT22;8062;53.882;10.642;2024-03-22T01:40:35;8.30;99.90
15926;DHT22;8062;53.882;10.642;2024-03-22T01:41:55;8.30;99.90
15926;DHT22;8062;53.882;10.642;2024-03-22T01:43:14;8.30;99.90
15926;DHT22;8062;53.882;10.642;2024-03-22T01:44:34;8.30;99.90
15926;DHT22;8062;53.882;10.642;2024-03-22T01:45:53;8.30;99.90
15926;DHT22;8062;53.882;10.642;2024-03-22T01:47:13;8.30;99.90
15926;DHT22;8062;53.882;10.642;2024-03-22T01:48:32;8.40;99.90
15926;DHT22;8062;53.882;10.642;2024-03-22T01:49:55;8.40;99.90
15926;DHT22;8062;53.882;10.642;2024-03-22T01:51:14;8.40;99.90
15926;DHT22;8062;53.882;10.642;2024-03-22T01:52:34;8.40;99.90
15926;DHT22;8062;53.882;10.642;2024-03-22T01:53:53;8.50;99.90
15926;DHT22;8062;53.882;10.642;2024-03-22T01:55:14;8.50;99.90
15926;DHT22;8062;53.882;10.642;2024-03-22T01:56:34;8.40;99.90
15926;DHT22;8062;53.882;10.642;2024-03-22T01:57:55;8.50;99.90
15926;DHT22;8062;53.882;10.642;2024-03-22T01:59:17;8.50;99.90
15926;DHT22;8062;53.882;10.642;2024-03-22T02:00:37;8.50;99.90
15926;DHT22;8062;53.882;10.642;2024-03-22T02:01:57;8.40;99.90
15926;DHT22;8062;53.882;10.642;2024-03-22T02:03:16;8.50;99.90
15926;DHT22;8062;53.882;10.642;2024-03-22T02:04:36;8.50;99.90
15926;DHT22;8062;53.882;10.642;2024-03-22T02:05:56;8.50;99.90
15926;DHT22;8062;53.882;10.642;2024-03-22T02:07:15;8.50;99.90
15926;DHT22;8062;53.882;10.642;2024-03-22T02:08:35;8.50;99.90
15926;DHT22;8062;53.882;10.642;2024-03-22T02:09:55;8.50;99.90
15926;DHT22;8062;53.882;10.642;2024-03-22T02:11:14;8.50;99.90
15926;DHT22;8062;53.882;10.642;2024-03-22T02:12:34;8.50;99.90
15926;DHT22;8062;53.882;10.642;2024-03-22T02:13:54;8.50;99.90
15926;DHT22;8062;53.882;10.642;2024-03-22T02:15:13;8.50;99.90
15926;DHT22;8062;53.882;10.642;2024-03-22T02:16:33;8.50;99.90
15926;DHT22;8062;53.882;10.642;2024-03-22T02:17:53;8.50;99.90
15926;DHT22;8062;53.882;10.642;2024-03-22T02:19:12;8.50;99.90
15926;DHT22;8062;53.882;10.642;2024-03-22T02:20:31;8.60;99.90
15926;DHT22;8062;53.882;10.642;2024-03-22T02:21:51;8.60;99.90
15926;DHT22;8062;53.882;10.642;2024-03-22T02:23:10;8.60;99.90
15926;DHT22;8062;53.882;10.642;2024-03-22T02:24:30;8.60;99.90
15926;DHT22;8062;53.882;10.642;2024-03-22T02:25:49;8.70;99.90
15926;DHT22;8062;53.882;10.642;2024-03-22T02:27:09;8.60;99.90
15926;DHT22;8062;53.882;10.642;2024-03-22T02:28:29;8.60;99.90
15926;DHT22;8062;53.882;10.642;2024-03-22T02:29:49;8.60;99.90
15926;DHT22;8062;53.882;10.642;2024-03-22T02:31:09;8.60;99.90
15926;DHT22;8062;53.882;10.642;2024-03-22T02:32:28;8.60;99.90
15926;DHT22;8062;53.882;10.642;2024-03-22T02:33:48;8.70;99.90
15926;DHT22;8062;53.882;10.642;2024-03-22T02:35:08;8.70;99.90
15926;DHT22;8062;53.882;10.642;2024-03-22T02:36:28;8.60;99.90
15926;DHT22;8062;53.882;10.642;2024-03-22T02:37:47;8.70;99.90
15926;DHT22;8062;53.882;10.642;2024-03-22T02:39:07;8.70;99.90
15926;DHT22;8062;53.882;10.642;2024-03-22T02:40:26;8.60;99.90
15926;DHT22;8062;53.882;10.642;2024-03-22T02:41:45;8.70;99.90
15926;DHT22;8062;53.882;10.642;2024-03-22T02:43:05;8.70;99.90
15926;DHT22;8062;53.882;10.642;2024-03-22T02:44:24;8.70;99.90
15926;DHT22;8062;53.882;10.642;2024-03-22T02:45:44;8.80;99.90
15926;DHT22;8062;53.882;10.642;2024-03-22T02:47:05;8.80;99.90
15926;DHT22;8062;53.882;10.642;2024-03-22T02:48:24;8.80;99.90
15926;DHT22;8062;53.882;10.642;2024-03-22T02:49:44;8.80;99.90
15926;DHT22;8062;53.882;10.642;2024-03-22T02:51:04;8.70;99.90
15926;DHT22;8062;53.882;10.642;2024-03-22T02:52:23;8.70;99.90
15926;DHT22;8062;53.882;10.642;2024-03-22T02:53:43;8.70;99.90
15926;DHT22;8062;53.882;10.642;2024-03-22T02:55:03;8.80;99.90
15926;DHT22;8062;53.882;10.642;2024-03-22T02:56:22;8.80;99.90
15926;DHT22;8062;53.882;10.642;2024-03-22T02:57:42;8.80;99.90
15926;DHT22;8062;53.882;10.642;2024-03-22T02:59:01;8.80;99.90
15926;DHT22;8062;53.882;10.642;2024-03-22T03:00:20;8.80;99.90
15926;DHT22;8062;53.882;10.642;2024-03-22T03:01:40;8.80;99.90
15926;DHT22;8062;53.882;10.642;2024-03-22T03:02:59;8.70;99.90
15926;DHT22;8062;53.882;10.642;2024-03-22T03:04:19;8.70;99.90
15926;DHT22;8062;53.882;10.642;2024-03-22T03:05:38;8.80;99.90
15926;DHT22;8062;53.882;10.642;2024-03-22T03:07:00;8.70;99.90
15926;DHT22;8062;53.882;10.642;2024-03-22T03:08:20;8.70;99.90
15926;DHT22;8062;53.882;10.642;2024-03-22T03:09:39;8.80;99.90
15926;DHT22;8062;53.882;10.642;2024-03-22T03:10:59;8.70;99.90
15926;DHT22;8062;53.882;10.642;2024-03-22T03:12:18;8.70;99.90
15926;DHT22;8062;53.882;10.642;2024-03-22T03:13:38;8.80;99.90
15926;DHT22;8062;53.882;10.642;2024-03-22T03:14:57;8.70;99.90
15926;DHT22;8062;53.882;10.642;2024-03-22T03:16:16;8.70;99.90
15926;DHT22;8062;53.882;10.642;2024-03-22T03:17:36;8.70;99.90
15926;DHT22;8062;53.882;10.642;2024-03-22T03:18:56;8.70;99.90
15926;DHT22;8062;53.882;10.642;2024-03-22T03:20:16;8.70;99.90
15926;DHT22;8062;53.882;10.642;2024-03-22T03:21:36;8.80;99.90
15926;DHT22;8062;53.882;10.642;2024-03-22T03:22:56;8.80;99.90
15926;DHT22;8062;53.882;10.642;2024-03-22T03:24:18;8.80;99.90
15926;DHT22;8062;53.882;10.642;2024-03-22T03:25:38;8.80;99.90
15926;DHT22;8062;53.882;10.642;2024-03-22T03:26:58;8.80;99.90
15926;DHT22;8062;53.882;10.642;2024-03-22T03:28:18;8.70;99.90
15926;DHT22;8062;53.882;10.642;2024-03-22T03:29:38;8.80;99.90
15926;DHT22;8062;53.882;10.642;2024-03-22T03:30:57;8.70;99.90
15926;DHT22;8062;53.882;10.642;2024-03-22T03:32:17;8.70;99.90
15926;DHT22;8062;53.882;10.642;2024-03-22T03:33:36;8.70;99.90
15926;DHT22;8062;53.882;10.642;2024-03-22T03:34:56;8.70;99.90
15926;DHT22;8062;53.882;10.642;2024-03-22T03:36:16;8.80;99.90
15926;DHT22;8062;53.882;10.642;2024-03-22T03:37:35;8.80;99.90
15926;DHT22;8062;53.882;10.642;2024-03-22T03:38:54;8.80;99.90
15926;DHT22;8062;53.882;10.642;2024-03-22T03:40:14;8.80;99.90
15926;DHT22;8062;53.882;10.642;2024-03-22T03:41:33;8.80;99.90
15926;DHT22;8062;53.882;10.642;2024-03-22T03:42:53;8.80;99.90
15926;DHT22;8062;53.882;10.642;2024-03-22T03:44:13;8.80;99.90
15926;DHT22;8062;53.882;10.642;2024-03-22T03:45:35;8.80;99.90
15926;DHT22;8062;53.882;10.642;2024-03-22T03:46:55;8.80;99.90
15926;DHT22;8062;53.882;10.642;2024-03-22T03:48:14;8.80;99.90
15926;DHT22;8062;53.882;10.642;2024-03-22T03:49:34;8.80;99.90
15926;DHT22;8062;53.882;10.642;2024-03-22T03:50:54;8.80;99.90
15926;DHT22;8062;53.882;10.642;2024-03-22T03:52:14;8.80;99.90
15926;DHT22;8062;53.882;10.642;2024-03-22T03:53:33;8.80;99.90
15926;DHT22;8062;53.882;10.642;2024-03-22T03:54:53;8.90;99.90
15926;DHT22;8062;53.882;10.642;2024-03-22T03:56:12;8.90;99.90
15926;DHT22;8062;53.882;10.642;2024-03-22T03:57:32;8.90;99.90
15926;DHT22;8062;53.882;10.642;2024-03-22T03:58:51;8.90;99.90
15926;DHT22;8062;53.882;10.642;2024-03-22T04:00:11;8.90;99.90
15926;DHT22;8062;53.882;10.642;2024-03-22T04:01:30;8.90;99.90
15926;DHT22;8062;53.882;10.642;2024-03-22T04:02:50;8.90;99.90
15926;DHT22;8062;53.882;10.642;2024-03-22T04:04:10;8.90;99.90
15926;DHT22;8062;53.882;10.642;2024-03-22T04:05:29;8.90;99.90
15926;DHT22;8062;53.882;10.642;2024-03-22T04:06:49;9.00;99.90
15926;DHT22;8062;53.882;10.642;2024-03-22T04:08:08;8.90;99.90
15926;DHT22;8062;53.882;10.642;2024-03-22T04:09:28;9.00;99.90
15926;DHT22;8062;53.882;10.642;2024-03-22T04:10:57;9.00;99.90
15926;DHT22;8062;53.882;10.642;2024-03-22T04:12:17;9.00;99.90
15926;DHT22;8062;53.882;10.642;2024-03-22T04:13:36;9.00;99.90
15926;DHT22;8062;53.882;10.642;2024-03-22T04:14:56;9.00;99.90
15926;DHT22;8062;53.882;10.642;2024-03-22T04:16:16;9.00;99.90
15926;DHT22;8062;53.882;10.642;2024-03-22T04:17:35;9.00;99.90
15926;DHT22;8062;53.882;10.642;2024-03-22T04:18:54;9.00;99.90
15926;DHT22;8062;53.882;10.642;2024-03-22T04:20:14;9.10;99.90
15926;DHT22;8062;53.882;10.642;2024-03-22T04:21:33;9.00;99.90
15926;DHT22;8062;53.882;10.642;2024-03-22T04:22:53;9.00;99.90
15926;DHT22;8062;53.882;10.642;2024-03-22T04:24:13;9.10;99.90
15926;DHT22;8062;53.882;10.642;2024-03-22T04:25:32;9.10;99.90
15926;DHT22;8062;53.882;10.642;2024-03-22T04:26:51;9.10;99.90
15926;DHT22;8062;53.882;10.642;2024-03-22T04:28:11;9.10;99.90
15926;DHT22;8062;53.882;10.642;2024-03-22T04:29:31;9.10;99.90
15926;DHT22;8062;53.882;10.642;2024-03-22T04:31:01;9.10;99.90
15926;DHT22;8062;53.882;10.642;2024-03-22T04:32:20;9.10;99.90
15926;DHT22;8062;53.882;10.642;2024-03-22T04:33:40;9.10;99.90
15926;DHT22;8062;53.882;10.642;2024-03-22T04:35:00;9.10;99.90
15926;DHT22;8062;53.882;10.642;2024-03-22T04:36:19;9.20;99.90
15926;DHT22;8062;53.882;10.642;2024-03-22T04:37:38;9.10;99.90
15926;DHT22;8062;53.882;10.642;2024-03-22T04:38:58;9.10;99.90
15926;DHT22;8062;53.882;10.642;2024-03-22T04:40:17;9.10;99.90
15926;DHT22;8062;53.882;10.642;2024-03-22T04:41:37;9.20;99.90
15926;DHT22;8062;53.882;10.642;2024-03-22T04:42:57;9.20;99.90
15926;DHT22;8062;53.882;10.642;2024-03-22T04:44:16;9.20;99.90
15926;DHT22;8062;53.882;10.642;2024-03-22T04:45:36;9.20;99.90
15926;DHT22;8062;53.882;10.642;2024-03-22T04:46:55;9.20;99.90
15926;DHT22;8062;53.882;10.642;2024-03-22T04:48:18;9.20;99.90
15926;DHT22;8062;53.882;10.642;2024-03-22T04:49:37;9.20;99.90
15926;DHT22;8062;53.882;10.642;2024-03-22T04:50:57;9.20;99.90
15926;DHT22;8062;53.882;10.642;2024-03-22T04:52:17;9.20;99.90
15926;DHT22;8062;53.882;10.642;2024-03-22T04:53:36;9.20;99.90
15926;DHT22;8062;53.882;10.642;2024-03-22T04:54:55;9.30;99.90
15926;DHT22;8062;53.882;10.642;2024-03-22T04:56:15;9.30;99.90
15926;DHT22;8062;53.882;10.642;2024-03-22T04:57:34;9.30;99.90
15926;DHT22;8062;53.882;10.642;2024-03-22T04:58:54;9.30;99.90
15926;DHT22;8062;53.882;10.642;2024-03-22T05:00:15;9.30;99.90
15926;DHT22;8062;53.882;10.642;2024-03-22T05:01:34;9.30;99.90
15926;DHT22;8062;53.882;10.642;2024-03-22T05:02:54;9.30;99.90
15926;DHT22;8062;53.882;10.642;2024-03-22T05:04:14;9.30;99.90
15926;DHT22;8062;53.882;10.642;2024-03-22T05:05:34;9.30;99.90
15926;DHT22;8062;53.882;10.642;2024-03-22T05:06:54;9.30;99.90
15926;DHT22;8062;53.882;10.642;2024-03-22T05:08:13;9.40;99.90
15926;DHT22;8062;53.882;10.642;2024-03-22T05:09:33;9.40;99.90
15926;DHT22;8062;53.882;10.642;2024-03-22T05:10:53;9.40;99.90
15926;DHT22;8062;53.882;10.642;2024-03-22T05:12:12;9.40;99.90
15926;DHT22;8062;53.882;10.642;2024-03-22T05:13:31;9.40;99.90
15926;DHT22;8062;53.882;10.642;2024-03-22T05:14:51;9.40;99.90
15926;DHT22;8062;53.882;10.642;2024-03-22T05:16:11;9.50;99.90
15926;DHT22;8062;53.882;10.642;2024-03-22T05:17:31;9.40;99.90
15926;DHT22;8062;53.882;10.642;2024-03-22T05:18:51;9.40;99.90
15926;DHT22;8062;53.882;10.642;2024-03-22T05:20:11;9.40;99.90
15926;DHT22;8062;53.882;10.642;2024-03-22T05:21:30;9.40;99.90
15926;DHT22;8062;53.882;10.642;2024-03-22T05:22:50;9.40;99.90
15926;DHT22;8062;53.882;10.642;2024-03-22T05:24:09;9.40;99.90
15926;DHT22;8062;53.882;10.642;2024-03-22T05:25:29;9.40;99.90
15926;DHT22;8062;53.882;10.642;2024-03-22T05:26:48;9.50;99.90
15926;DHT22;8062;53.882;10.642;2024-03-22T05:28:08;9.50;99.90
15926;DHT22;8062;53.882;10.642;2024-03-22T05:29:27;9.50;99.90
15926;DHT22;8062;53.882;10.642;2024-03-22T05:30:47;9.40;99.90
15926;DHT22;8062;53.882;10.642;2024-03-22T05:32:07;9.40;99.90
15926;DHT22;8062;53.882;10.642;2024-03-22T05:33:26;9.40;99.90
15926;DHT22;8062;53.882;10.642;2024-03-22T05:34:46;9.40;99.90
15926;DHT22;8062;53.882;10.642;2024-03-22T05:36:06;9.50;99.90
15926;DHT22;8062;53.882;10.642;2024-03-22T05:37:26;9.40;99.90
15926;DHT22;8062;53.882;10.642;2024-03-22T05:38:46;9.50;99.90
15926;DHT22;8062;53.882;10.642;2024-03-22T05:40:06;9.50;99.90
15926;DHT22;8062;53.882;10.642;2024-03-22T05:41:26;9.50;99.90
15926;DHT22;8062;53.882;10.642;2024-03-22T05:42:45;9.50;99.90
15926;DHT22;8062;53.882;10.642;2024-03-22T05:44:05;9.60;99.90
15926;DHT22;8062;53.882;10.642;2024-03-22T05:45:24;9.60;99.90
15926;DHT22;8062;53.882;10.642;2024-03-22T05:46:44;9.60;99.90
15926;DHT22;8062;53.882;10.642;2024-03-22T05:48:04;9.60;99.90
15926;DHT22;8062;53.882;10.642;2024-03-22T05:49:24;9.60;99.90
15926;DHT22;8062;53.882;10.642;2024-03-22T05:50:43;9.60;99.90
15926;DHT22;8062;53.882;10.642;2024-03-22T05:52:03;9.60;99.90
15926;DHT22;8062;53.882;10.642;2024-03-22T05:53:23;9.60;99.90
15926;DHT22;8062;53.882;10.642;2024-03-22T05:54:42;9.60;99.90
15926;DHT22;8062;53.882;10.642;2024-03-22T05:56:02;9.60;99.90
15926;DHT22;8062;53.882;10.642;2024-03-22T05:57:21;9.60;99.90
15926;DHT22;8062;53.882;10.642;2024-03-22T05:58:41;9.60;99.90
15926;DHT22;8062;53.882;10.642;2024-03-22T06:00:01;9.60;99.90
15926;DHT22;8062;53.882;10.642;2024-03-22T06:01:21;9.60;99.90
15926;DHT22;8062;53.882;10.642;2024-03-22T06:02:41;9.60;99.90
15926;DHT22;8062;53.882;10.642;2024-03-22T06:04:00;9.70;99.90
15926;DHT22;8062;53.882;10.642;2024-03-22T06:05:20;9.70;99.90
15926;DHT22;8062;53.882;10.642;2024-03-22T06:06:39;9.70;99.90
15926;DHT22;8062;53.882;10.642;2024-03-22T06:07:58;9.70;99.90
15926;DHT22;8062;53.882;10.642;2024-03-22T06:09:18;9.70;99.90
15926;DHT22;8062;53.882;10.642;2024-03-22T06:10:57;9.70;99.90
15926;DHT22;8062;53.882;10.642;2024-03-22T06:12:17;9.70;99.90
15926;DHT22;8062;53.882;10.642;2024-03-22T06:13:37;9.70;99.90
15926;DHT22;8062;53.882;10.642;2024-03-22T06:14:57;9.70;99.90
15926;DHT22;8062;53.882;10.642;2024-03-22T06:16:16;9.70;99.90
15926;DHT22;8062;53.882;10.642;2024-03-22T06:17:36;9.70;99.90
15926;DHT22;8062;53.882;10.642;2024-03-22T06:18:55;9.70;99.90
15926;DHT22;8062;53.882;10.642;2024-03-22T06:20:15;9.70;99.90
15926;DHT22;8062;53.882;10.642;2024-03-22T06:21:35;9.80;99.90
15926;DHT22;8062;53.882;10.642;2024-03-22T06:22:54;9.80;99.90
15926;DHT22;8062;53.882;10.642;2024-03-22T06:24:14;9.80;99.90
15926;DHT22;8062;53.882;10.642;2024-03-22T06:25:34;9.90;99.90
15926;DHT22;8062;53.882;10.642;2024-03-22T06:26:53;9.90;99.90
15926;DHT22;8062;53.882;10.642;2024-03-22T06:28:13;9.90;99.90
15926;DHT22;8062;53.882;10.642;2024-03-22T06:29:32;10.00;99.90
15926;DHT22;8062;53.882;10.642;2024-03-22T06:30:52;10.00;99.90
15926;DHT22;8062;53.882;10.642;2024-03-22T06:32:12;10.00;99.90
15926;DHT22;8062;53.882;10.642;2024-03-22T06:33:31;10.00;99.90
15926;DHT22;8062;53.882;10.642;2024-03-22T06:34:51;10.00;99.90
15926;DHT22;8062;53.882;10.642;2024-03-22T06:36:11;10.10;99.90
15926;DHT22;8062;53.882;10.642;2024-03-22T06:37:30;10.10;99.90
15926;DHT22;8062;53.882;10.642;2024-03-22T06:38:50;10.10;99.90
15926;DHT22;8062;53.882;10.642;2024-03-22T06:40:10;10.10;99.90
15926;DHT22;8062;53.882;10.642;2024-03-22T06:41:30;10.10;99.90
15926;DHT22;8062;53.882;10.642;2024-03-22T06:42:50;10.10;99.90
15926;DHT22;8062;53.882;10.642;2024-03-22T06:44:09;10.20;99.90
15926;DHT22;8062;53.882;10.642;2024-03-22T06:45:31;10.20;99.90
15926;DHT22;8062;53.882;10.642;2024-03-22T06:46:50;10.20;99.90
15926;DHT22;8062;53.882;10.642;2024-03-22T06:48:10;10.20;99.90
15926;DHT22;8062;53.882;10.642;2024-03-22T06:49:29;10.20;99.90
15926;DHT22;8062;53.882;10.642;2024-03-22T06:50:49;10.30;99.90
15926;DHT22;8062;53.882;10.642;2024-03-22T06:52:08;10.30;99.90
15926;DHT22;8062;53.882;10.642;2024-03-22T06:53:28;10.20;99.90
15926;DHT22;8062;53.882;10.642;2024-03-22T06:54:47;10.30;99.90
15926;DHT22;8062;53.882;10.642;2024-03-22T06:56:07;10.30;99.90
15926;DHT22;8062;53.882;10.642;2024-03-22T06:57:28;10.30;99.90
15926;DHT22;8062;53.882;10.642;2024-03-22T06:58:47;10.30;99.90
15926;DHT22;8062;53.882;10.642;2024-03-22T07:00:07;10.30;99.90
15926;DHT22;8062;53.882;10.642;2024-03-22T07:01:29;10.30;99.90
15926;DHT22;8062;53.882;10.642;2024-03-22T07:02:48;10.30;99.90
15926;DHT22;8062;53.882;10.642;2024-03-22T07:04:09;10.30;99.90
15926;DHT22;8062;53.882;10.642;2024-03-22T07:05:28;10.30;99.90
15926;DHT22;8062;53.882;10.642;2024-03-22T07:06:48;10.30;99.90
15926;DHT22;8062;53.882;10.642;2024-03-22T07:08:08;10.40;99.90
15926;DHT22;8062;53.882;10.642;2024-03-22T07:09:27;10.40;99.90
15926;DHT22;8062;53.882;10.642;2024-03-22T07:10:49;10.50;99.90
15926;DHT22;8062;53.882;10.642;2024-03-22T07:12:08;10.40;99.90
15926;DHT22;8062;53.882;10.642;2024-03-22T07:13:28;10.50;99.90
15926;DHT22;8062;53.882;10.642;2024-03-22T07:14:48;10.50;99.90
15926;DHT22;8062;53.882;10.642;2024-03-22T07:16:07;10.50;99.90
15926;DHT22;8062;53.882;10.642;2024-03-22T07:17:27;10.50;99.90
15926;DHT22;8062;53.882;10.642;2024-03-22T07:18:47;10.60;99.90
15926;DHT22;8062;53.882;10.642;2024-03-22T07:20:08;10.70;99.90
15926;DHT22;8062;53.882;10.642;2024-03-22T07:21:27;10.70;99.90
15926;DHT22;8062;53.882;10.642;2024-03-22T07:22:47;10.70;99.90
15926;DHT22;8062;53.882;10.642;2024-03-22T07:24:06;10.70;99.90
15926;DHT22;8062;53.882;10.642;2024-03-22T07:25:25;10.70;99.90
15926;DHT22;8062;53.882;10.642;2024-03-22T07:26:45;10.80;99.90
15926;DHT22;8062;53.882;10.642;2024-03-22T07:28:05;10.80;99.90
15926;DHT22;8062;53.882;10.642;2024-03-22T07:29:25;10.80;99.90
15926;DHT22;8062;53.882;10.642;2024-03-22T07:30:44;10.80;99.90
15926;DHT22;8062;53.882;10.642;2024-03-22T07:32:04;10.80;99.90
15926;DHT22;8062;53.882;10.642;2024-03-22T07:33:23;10.80;99.90
15926;DHT22;8062;53.882;10.642;2024-03-22T07:34:46;10.90;99.90
15926;DHT22;8062;53.882;10.642;2024-03-22T07:36:06;10.90;99.90
15926;DHT22;8062;53.882;10.642;2024-03-22T07:37:25;10.80;99.90
15926;DHT22;8062;53.882;10.642;2024-03-22T07:38:45;10.80;99.90
15926;DHT22;8062;53.882;10.642;2024-03-22T07:40:05;10.90;99.90
15926;DHT22;8062;53.882;10.642;2024-03-22T07:41:25;10.90;99.90
15926;DHT22;8062;53.882;10.642;2024-03-22T07:42:44;10.80;99.90
15926;DHT22;8062;53.882;10.642;2024-03-22T07:44:04;10.80;99.90
15926;DHT22;8062;53.882;10.642;2024-03-22T07:45:24;10.90;99.90
15926;DHT22;8062;53.882;10.642;2024-03-22T07:46:44;10.80;99.90
15926;DHT22;8062;53.882;10.642;2024-03-22T07:48:04;10.90;99.90
15926;DHT22;8062;53.882;10.642;2024-03-22T07:49:24;10.90;99.90
15926;DHT22;8062;53.882;10.642;2024-03-22T07:50:43;10.90;99.90
15926;DHT22;8062;53.882;10.642;2024-03-22T07:52:03;10.90;99.90
15926;DHT22;8062;53.882;10.642;2024-03-22T07:53:24;10.90;99.90
15926;DHT22;8062;53.882;10.642;2024-03-22T07:54:44;10.90;99.90
15926;DHT22;8062;53.882;10.642;2024-03-22T07:56:04;10.90;99.90
15926;DHT22;8062;53.882;10.642;2024-03-22T07:57:23;11.00;99.90
15926;DHT22;8062;53.882;10.642;2024-03-22T07:58:43;11.00;99.90
15926;DHT22;8062;53.882;10.642;2024-03-22T08:00:03;11.00;99.90
15926;DHT22;8062;53.882;10.642;2024-03-22T08:01:31;11.00;99.90
15926;DHT22;8062;53.882;10.642;2024-03-22T08:02:51;11.00;99.90
15926;DHT22;8062;53.882;10.642;2024-03-22T08:04:10;11.10;99.90
15926;DHT22;8062;53.882;10.642;2024-03-22T08:05:29;11.20;99.90
15926;DHT22;8062;53.882;10.642;2024-03-22T08:06:50;11.20;99.90
15926;DHT22;8062;53.882;10.642;2024-03-22T08:08:10;11.20;99.90
15926;DHT22;8062;53.882;10.642;2024-03-22T08:09:30;11.30;99.90
15926;DHT22;8062;53.882;10.642;2024-03-22T08:10:49;11.30;99.90
15926;DHT22;8062;53.882;10.642;2024-03-22T08:12:08;11.30;99.90
15926;DHT22;8062;53.882;10.642;2024-03-22T08:13:28;11.30;99.90
15926;DHT22;8062;53.882;10.642;2024-03-22T08:14:48;11.30;99.90
15926;DHT22;8062;53.882;10.642;2024-03-22T08:16:07;11.30;99.90
15926;DHT22;8062;53.882;10.642;2024-03-22T08:17:26;11.30;99.90
15926;DHT22;8062;53.882;10.642;2024-03-22T08:18:46;11.30;99.90
15926;DHT22;8062;53.882;10.642;2024-03-22T08:20:06;11.40;99.90
15926;DHT22;8062;53.882;10.642;2024-03-22T08:21:26;11.30;99.90
15926;DHT22;8062;53.882;10.642;2024-03-22T08:22:45;11.30;99.90
15926;DHT22;8062;53.882;10.642;2024-03-22T08:24:05;11.30;99.90
15926;DHT22;8062;53.882;10.642;2024-03-22T08:25:25;11.30;99.90
15926;DHT22;8062;53.882;10.642;2024-03-22T08:26:44;11.20;99.90
15926;DHT22;8062;53.882;10.642;2024-03-22T08:28:06;11.20;99.90
15926;DHT22;8062;53.882;10.642;2024-03-22T08:29:26;11.20;99.90
15926;DHT22;8062;53.882;10.642;2024-03-22T08:30:45;11.20;99.90